sensor_id;sensor_type;location;lat;lon;timestamp;P1;durP1;ratioP1;P2;durP2;ratioP2
73337;SDS011;61575;49.908;35.556;2023-06-14T00:00:54;5.43;;;2.00;;
73337;SDS011;61575;49.908;35.556;2023-06-14T00:03:58;4.22;;;1.88;;
73337;SDS011;61575;49.908;35.556;2023-06-14T00:07:00;3.42;;;1.80;;
73337;SDS011;61575;49.908;35.556;2023-06-14T00:10:03;3.65;;;1.92;;
73337;SDS011;61575;49.908;35.556;2023-06-14T00:13:06;4.18;;;2.00;;
73337;SDS011;61575;49.908;35.556;2023-06-14T00:16:08;4.32;;;2.22;;
73337;SDS011;61575;49.908;35.556;2023-06-14T00:19:10;5.30;;;2.10;;
73337;SDS011;61575;49.908;35.556;2023-06-14T00:22:12;3.88;;;2.08;;
73337;SDS011;61575;49.908;35.556;2023-06-14T00:25:15;4.32;;;2.00;;
73337;SDS011;61575;49.908;35.556;2023-06-14T00:28:29;4.53;;;2.33;;
73337;SDS011;61575;49.908;35.556;2023-06-14T00:31:31;4.93;;;2.22;;
73337;SDS011;61575;49.908;35.556;2023-06-14T00:34:33;4.90;;;2.27;;
73337;SDS011;61575;49.908;35.556;2023-06-14T00:37:36;4.60;;;2.33;;
73337;SDS011;61575;49.908;35.556;2023-06-14T00:40:38;4.38;;;2.10;;
73337;SDS011;61575;49.908;35.556;2023-06-14T00:43:40;3.73;;;2.00;;
73337;SDS011;61575;49.908;35.556;2023-06-14T00:46:42;4.63;;;2.20;;
73337;SDS011;61575;49.908;35.556;2023-06-14T00:49:45;3.95;;;2.00;;
73337;SDS011;61575;49.908;35.556;2023-06-14T00:52:49;3.72;;;2.15;;
73337;SDS011;61575;49.908;35.556;2023-06-14T00:55:52;5.55;;;2.20;;
73337;SDS011;61575;49.908;35.556;2023-06-14T00:58:55;4.40;;;2.00;;
73337;SDS011;61575;49.908;35.556;2023-06-14T01:01:57;4.50;;;2.13;;
73337;SDS011;61575;49.908;35.556;2023-06-14T01:04:59;4.05;;;1.75;;
73337;SDS011;61575;49.908;35.556;2023-06-14T01:08:11;6.32;;;2.33;;
73337;SDS011;61575;49.908;35.556;2023-06-14T01:11:22;4.10;;;2.00;;
73337;SDS011;61575;49.908;35.556;2023-06-14T01:14:30;4.35;;;2.08;;
73337;SDS011;61575;49.908;35.556;2023-06-14T01:17:35;5.43;;;2.40;;
73337;SDS011;61575;49.908;35.556;2023-06-14T01:20:45;4.18;;;2.20;;
73337;SDS011;61575;49.908;35.556;2023-06-14T01:23:51;4.25;;;2.20;;
73337;SDS011;61575;49.908;35.556;2023-06-14T01:27:00;4.65;;;2.40;;
73337;SDS011;61575;49.908;35.556;2023-06-14T01:30:03;4.68;;;2.75;;
73337;SDS011;61575;49.908;35.556;2023-06-14T01:33:06;5.68;;;2.67;;
73337;SDS011;61575;49.908;35.556;2023-06-14T01:36:09;4.63;;;2.45;;
73337;SDS011;61575;49.908;35.556;2023-06-14T01:39:12;6.30;;;2.55;;
73337;SDS011;61575;49.908;35.556;2023-06-14T01:42:16;5.32;;;2.60;;
73337;SDS011;61575;49.908;35.556;2023-06-14T01:45:18;4.00;;;2.40;;
73337;SDS011;61575;49.908;35.556;2023-06-14T01:48:21;6.15;;;2.97;;
73337;SDS011;61575;49.908;35.556;2023-06-14T01:51:23;6.07;;;3.00;;
73337;SDS011;61575;49.908;35.556;2023-06-14T01:54:24;5.40;;;2.47;;
73337;SDS011;61575;49.908;35.556;2023-06-14T01:57:27;5.75;;;2.70;;
73337;SDS011;61575;49.908;35.556;2023-06-14T02:00:29;4.22;;;2.40;;
73337;SDS011;61575;49.908;35.556;2023-06-14T02:03:32;6.95;;;2.85;;
73337;SDS011;61575;49.908;35.556;2023-06-14T02:06:34;5.57;;;2.85;;
73337;SDS011;61575;49.908;35.556;2023-06-14T02:09:36;5.37;;;2.73;;
73337;SDS011;61575;49.908;35.556;2023-06-14T02:12:38;8.23;;;3.30;;
73337;SDS011;61575;49.908;35.556;2023-06-14T02:15:39;5.93;;;2.80;;
73337;SDS011;61575;49.908;35.556;2023-06-14T02:18:41;4.95;;;2.78;;
73337;SDS011;61575;49.908;35.556;2023-06-14T02:21:44;5.23;;;2.20;;
73337;SDS011;61575;49.908;35.556;2023-06-14T02:24:46;5.45;;;2.78;;
73337;SDS011;61575;49.908;35.556;2023-06-14T02:27:53;6.03;;;3.17;;
73337;SDS011;61575;49.908;35.556;2023-06-14T02:30:56;5.25;;;2.75;;
73337;SDS011;61575;49.908;35.556;2023-06-14T02:33:58;6.22;;;3.20;;
73337;SDS011;61575;49.908;35.556;2023-06-14T02:37:00;5.50;;;3.20;;
73337;SDS011;61575;49.908;35.556;2023-06-14T02:40:04;6.78;;;3.28;;
73337;SDS011;61575;49.908;35.556;2023-06-14T02:43:08;6.78;;;3.47;;
73337;SDS011;61575;49.908;35.556;2023-06-14T02:46:10;7.10;;;3.88;;
73337;SDS011;61575;49.908;35.556;2023-06-14T02:49:12;6.65;;;3.40;;
73337;SDS011;61575;49.908;35.556;2023-06-14T02:52:14;6.20;;;3.80;;
73337;SDS011;61575;49.908;35.556;2023-06-14T02:55:16;7.97;;;3.80;;
73337;SDS011;61575;49.908;35.556;2023-06-14T02:58:19;6.38;;;3.90;;
73337;SDS011;61575;49.908;35.556;2023-06-14T03:01:21;6.20;;;3.40;;
73337;SDS011;61575;49.908;35.556;2023-06-14T03:04:23;7.55;;;3.92;;
73337;SDS011;61575;49.908;35.556;2023-06-14T03:07:27;7.43;;;4.22;;
73337;SDS011;61575;49.908;35.556;2023-06-14T03:10:32;6.82;;;4.05;;
73337;SDS011;61575;49.908;35.556;2023-06-14T03:13:35;6.28;;;3.53;;
73337;SDS011;61575;49.908;35.556;2023-06-14T03:16:39;7.32;;;3.55;;
73337;SDS011;61575;49.908;35.556;2023-06-14T03:19:44;6.03;;;3.50;;
73337;SDS011;61575;49.908;35.556;2023-06-14T03:22:47;8.45;;;4.53;;
73337;SDS011;61575;49.908;35.556;2023-06-14T03:25:50;9.82;;;5.00;;
73337;SDS011;61575;49.908;35.556;2023-06-14T03:28:52;9.35;;;5.68;;
73337;SDS011;61575;49.908;35.556;2023-06-14T03:32:00;9.70;;;6.05;;
73337;SDS011;61575;49.908;35.556;2023-06-14T03:35:16;11.13;;;6.22;;
73337;SDS011;61575;49.908;35.556;2023-06-14T03:38:21;9.82;;;6.25;;
73337;SDS011;61575;49.908;35.556;2023-06-14T03:41:24;11.63;;;6.40;;
73337;SDS011;61575;49.908;35.556;2023-06-14T03:44:28;11.95;;;6.78;;
73337;SDS011;61575;49.908;35.556;2023-06-14T03:47:30;10.98;;;6.60;;
73337;SDS011;61575;49.908;35.556;2023-06-14T03:50:32;11.07;;;5.85;;
73337;SDS011;61575;49.908;35.556;2023-06-14T03:53:34;12.50;;;6.17;;
73337;SDS011;61575;49.908;35.556;2023-06-14T03:56:45;10.20;;;5.80;;
73337;SDS011;61575;49.908;35.556;2023-06-14T03:59:48;9.52;;;5.70;;
73337;SDS011;61575;49.908;35.556;2023-06-14T04:02:50;9.45;;;5.68;;
73337;SDS011;61575;49.908;35.556;2023-06-14T04:05:53;10.27;;;6.57;;
73337;SDS011;61575;49.908;35.556;2023-06-14T04:08:59;11.73;;;6.32;;
73337;SDS011;61575;49.908;35.556;2023-06-14T04:12:06;14.18;;;7.18;;
73337;SDS011;61575;49.908;35.556;2023-06-14T04:15:13;11.88;;;6.70;;
73337;SDS011;61575;49.908;35.556;2023-06-14T04:18:23;12.95;;;7.15;;
73337;SDS011;61575;49.908;35.556;2023-06-14T04:21:26;11.73;;;7.00;;
73337;SDS011;61575;49.908;35.556;2023-06-14T04:24:33;12.32;;;7.38;;
73337;SDS011;61575;49.908;35.556;2023-06-14T04:27:37;13.40;;;6.88;;
73337;SDS011;61575;49.908;35.556;2023-06-14T04:30:39;13.32;;;7.22;;
73337;SDS011;61575;49.908;35.556;2023-06-14T04:36:49;11.38;;;6.40;;
73337;SDS011;61575;49.908;35.556;2023-06-14T04:39:51;12.02;;;6.72;;
73337;SDS011;61575;49.908;35.556;2023-06-14T04:42:54;11.98;;;7.22;;
73337;SDS011;61575;49.908;35.556;2023-06-14T04:45:56;14.38;;;8.30;;
73337;SDS011;61575;49.908;35.556;2023-06-14T04:49:00;12.48;;;6.80;;
73337;SDS011;61575;49.908;35.556;2023-06-14T04:52:04;13.30;;;7.57;;
73337;SDS011;61575;49.908;35.556;2023-06-14T04:55:09;14.85;;;8.70;;
73337;SDS011;61575;49.908;35.556;2023-06-14T04:58:12;16.27;;;9.40;;
73337;SDS011;61575;49.908;35.556;2023-06-14T05:01:14;13.77;;;8.00;;
73337;SDS011;61575;49.908;35.556;2023-06-14T05:04:17;13.47;;;8.30;;
73337;SDS011;61575;49.908;35.556;2023-06-14T05:07:20;14.88;;;8.43;;
73337;SDS011;61575;49.908;35.556;2023-06-14T05:10:26;12.77;;;7.75;;
73337;SDS011;61575;49.908;35.556;2023-06-14T05:13:28;13.60;;;8.25;;
73337;SDS011;61575;49.908;35.556;2023-06-14T05:16:30;14.63;;;8.27;;
73337;SDS011;61575;49.908;35.556;2023-06-14T05:19:32;14.88;;;7.57;;
73337;SDS011;61575;49.908;35.556;2023-06-14T05:22:34;17.27;;;8.80;;
73337;SDS011;61575;49.908;35.556;2023-06-14T05:25:36;14.43;;;8.70;;
73337;SDS011;61575;49.908;35.556;2023-06-14T05:28:38;14.52;;;7.05;;
73337;SDS011;61575;49.908;35.556;2023-06-14T05:31:40;12.98;;;7.10;;
73337;SDS011;61575;49.908;35.556;2023-06-14T05:34:42;15.48;;;8.23;;
73337;SDS011;61575;49.908;35.556;2023-06-14T05:40:46;13.18;;;7.28;;
73337;SDS011;61575;49.908;35.556;2023-06-14T05:43:48;14.50;;;7.20;;
73337;SDS011;61575;49.908;35.556;2023-06-14T05:46:50;13.07;;;7.57;;
73337;SDS011;61575;49.908;35.556;2023-06-14T05:49:52;15.70;;;7.47;;
73337;SDS011;61575;49.908;35.556;2023-06-14T05:52:54;19.43;;;8.30;;
73337;SDS011;61575;49.908;35.556;2023-06-14T05:55:56;12.65;;;7.75;;
73337;SDS011;61575;49.908;35.556;2023-06-14T05:58:58;15.13;;;7.90;;
73337;SDS011;61575;49.908;35.556;2023-06-14T06:02:00;11.77;;;7.05;;
73337;SDS011;61575;49.908;35.556;2023-06-14T06:05:02;14.63;;;7.47;;
73337;SDS011;61575;49.908;35.556;2023-06-14T06:08:04;13.80;;;7.43;;
73337;SDS011;61575;49.908;35.556;2023-06-14T06:11:06;13.40;;;6.97;;
73337;SDS011;61575;49.908;35.556;2023-06-14T06:14:08;15.27;;;7.45;;
73337;SDS011;61575;49.908;35.556;2023-06-14T06:17:10;14.00;;;7.73;;
73337;SDS011;61575;49.908;35.556;2023-06-14T06:20:12;13.02;;;7.63;;
73337;SDS011;61575;49.908;35.556;2023-06-14T06:23:14;15.10;;;8.02;;
73337;SDS011;61575;49.908;35.556;2023-06-14T06:26:16;14.95;;;8.65;;
73337;SDS011;61575;49.908;35.556;2023-06-14T06:29:18;13.68;;;8.25;;
73337;SDS011;61575;49.908;35.556;2023-06-14T06:32:20;16.17;;;8.90;;
73337;SDS011;61575;49.908;35.556;2023-06-14T06:35:22;14.13;;;8.70;;
73337;SDS011;61575;49.908;35.556;2023-06-14T06:38:23;15.87;;;8.90;;
73337;SDS011;61575;49.908;35.556;2023-06-14T06:41:25;15.10;;;8.57;;
73337;SDS011;61575;49.908;35.556;2023-06-14T06:44:28;12.43;;;8.45;;
73337;SDS011;61575;49.908;35.556;2023-06-14T06:47:30;12.63;;;7.15;;
73337;SDS011;61575;49.908;35.556;2023-06-14T06:50:32;13.43;;;7.70;;
73337;SDS011;61575;49.908;35.556;2023-06-14T06:53:34;14.35;;;7.18;;
73337;SDS011;61575;49.908;35.556;2023-06-14T06:56:45;11.40;;;6.70;;
73337;SDS011;61575;49.908;35.556;2023-06-14T06:59:47;12.27;;;5.80;;
73337;SDS011;61575;49.908;35.556;2023-06-14T07:02:49;8.57;;;5.03;;
73337;SDS011;61575;49.908;35.556;2023-06-14T07:05:52;8.75;;;4.35;;
73337;SDS011;61575;49.908;35.556;2023-06-14T07:08:54;7.90;;;4.27;;
73337;SDS011;61575;49.908;35.556;2023-06-14T07:11:56;7.32;;;3.83;;
73337;SDS011;61575;49.908;35.556;2023-06-14T07:14:58;6.90;;;3.42;;
73337;SDS011;61575;49.908;35.556;2023-06-14T07:18:02;5.82;;;3.00;;
73337;SDS011;61575;49.908;35.556;2023-06-14T07:21:04;7.00;;;3.75;;
73337;SDS011;61575;49.908;35.556;2023-06-14T07:24:06;6.75;;;3.92;;
73337;SDS011;61575;49.908;35.556;2023-06-14T07:27:09;7.22;;;3.50;;
73337;SDS011;61575;49.908;35.556;2023-06-14T07:30:15;6.15;;;3.13;;
73337;SDS011;61575;49.908;35.556;2023-06-14T07:33:17;5.25;;;3.08;;
73337;SDS011;61575;49.908;35.556;2023-06-14T07:36:19;6.75;;;3.22;;
73337;SDS011;61575;49.908;35.556;2023-06-14T07:39:21;5.95;;;3.10;;
73337;SDS011;61575;49.908;35.556;2023-06-14T07:42:23;8.68;;;3.42;;
73337;SDS011;61575;49.908;35.556;2023-06-14T07:45:25;5.72;;;3.10;;
73337;SDS011;61575;49.908;35.556;2023-06-14T07:48:27;6.13;;;3.30;;
73337;SDS011;61575;49.908;35.556;2023-06-14T07:51:30;6.18;;;3.38;;
73337;SDS011;61575;49.908;35.556;2023-06-14T07:54:32;8.55;;;3.47;;
73337;SDS011;61575;49.908;35.556;2023-06-14T07:57:34;5.93;;;3.50;;
73337;SDS011;61575;49.908;35.556;2023-06-14T08:00:36;5.68;;;3.03;;
73337;SDS011;61575;49.908;35.556;2023-06-14T08:03:38;7.65;;;3.45;;
73337;SDS011;61575;49.908;35.556;2023-06-14T08:06:41;5.68;;;3.42;;
73337;SDS011;61575;49.908;35.556;2023-06-14T08:09:45;6.32;;;3.25;;
73337;SDS011;61575;49.908;35.556;2023-06-14T08:12:47;5.35;;;3.35;;
73337;SDS011;61575;49.908;35.556;2023-06-14T08:15:52;6.28;;;2.95;;
73337;SDS011;61575;49.908;35.556;2023-06-14T08:18:54;4.75;;;2.88;;
73337;SDS011;61575;49.908;35.556;2023-06-14T08:21:57;6.00;;;3.20;;
73337;SDS011;61575;49.908;35.556;2023-06-14T08:24:59;7.45;;;3.65;;
73337;SDS011;61575;49.908;35.556;2023-06-14T08:28:02;6.78;;;3.40;;
73337;SDS011;61575;49.908;35.556;2023-06-14T08:31:04;6.78;;;3.30;;
73337;SDS011;61575;49.908;35.556;2023-06-14T08:34:06;6.15;;;3.40;;
73337;SDS011;61575;49.908;35.556;2023-06-14T08:37:11;6.68;;;3.13;;
73337;SDS011;61575;49.908;35.556;2023-06-14T08:40:17;5.75;;;3.28;;
73337;SDS011;61575;49.908;35.556;2023-06-14T08:43:21;7.95;;;4.10;;
73337;SDS011;61575;49.908;35.556;2023-06-14T08:46:24;5.07;;;3.30;;
73337;SDS011;61575;49.908;35.556;2023-06-14T08:49:28;5.63;;;3.00;;
73337;SDS011;61575;49.908;35.556;2023-06-14T08:52:33;7.75;;;3.40;;
73337;SDS011;61575;49.908;35.556;2023-06-14T08:55:42;5.80;;;3.28;;
73337;SDS011;61575;49.908;35.556;2023-06-14T08:58:44;5.53;;;3.33;;
73337;SDS011;61575;49.908;35.556;2023-06-14T09:01:49;5.25;;;3.20;;
73337;SDS011;61575;49.908;35.556;2023-06-14T09:05:13;5.28;;;3.00;;
73337;SDS011;61575;49.908;35.556;2023-06-14T09:11:18;6.22;;;3.60;;
73337;SDS011;61575;49.908;35.556;2023-06-14T09:14:23;5.53;;;3.13;;
73337;SDS011;61575;49.908;35.556;2023-06-14T09:17:25;4.72;;;3.00;;
73337;SDS011;61575;49.908;35.556;2023-06-14T09:20:28;4.35;;;2.72;;
73337;SDS011;61575;49.908;35.556;2023-06-14T09:23:33;5.13;;;2.72;;
73337;SDS011;61575;49.908;35.556;2023-06-14T09:26:39;5.25;;;2.90;;
73337;SDS011;61575;49.908;35.556;2023-06-14T09:29:42;5.78;;;2.78;;
73337;SDS011;61575;49.908;35.556;2023-06-14T09:32:44;5.53;;;3.13;;
73337;SDS011;61575;49.908;35.556;2023-06-14T09:35:50;5.30;;;3.00;;
73337;SDS011;61575;49.908;35.556;2023-06-14T09:41:58;5.95;;;3.22;;
73337;SDS011;61575;49.908;35.556;2023-06-14T09:45:00;5.10;;;3.25;;
73337;SDS011;61575;49.908;35.556;2023-06-14T09:48:03;6.95;;;3.45;;
73337;SDS011;61575;49.908;35.556;2023-06-14T09:51:10;5.78;;;2.90;;
73337;SDS011;61575;49.908;35.556;2023-06-14T09:54:15;4.97;;;3.05;;
73337;SDS011;61575;49.908;35.556;2023-06-14T09:57:22;6.72;;;3.28;;
73337;SDS011;61575;49.908;35.556;2023-06-14T10:00:25;5.32;;;3.10;;
73337;SDS011;61575;49.908;35.556;2023-06-14T10:03:28;6.15;;;2.92;;
73337;SDS011;61575;49.908;35.556;2023-06-14T10:06:45;5.07;;;2.90;;
73337;SDS011;61575;49.908;35.556;2023-06-14T10:09:47;5.22;;;3.17;;
73337;SDS011;61575;49.908;35.556;2023-06-14T10:12:51;5.47;;;2.67;;
73337;SDS011;61575;49.908;35.556;2023-06-14T10:19:18;5.22;;;2.47;;
73337;SDS011;61575;49.908;35.556;2023-06-14T10:22:29;5.40;;;2.55;;
73337;SDS011;61575;49.908;35.556;2023-06-14T10:25:35;5.68;;;2.70;;
73337;SDS011;61575;49.908;35.556;2023-06-14T10:28:37;5.70;;;2.67;;
73337;SDS011;61575;49.908;35.556;2023-06-14T10:31:41;5.10;;;2.63;;
73337;SDS011;61575;49.908;35.556;2023-06-14T10:35:01;4.13;;;2.60;;
73337;SDS011;61575;49.908;35.556;2023-06-14T10:38:13;5.55;;;2.92;;
73337;SDS011;61575;49.908;35.556;2023-06-14T10:41:16;5.63;;;2.85;;
73337;SDS011;61575;49.908;35.556;2023-06-14T10:50:29;4.22;;;2.20;;
73337;SDS011;61575;49.908;35.556;2023-06-14T10:53:39;4.90;;;2.40;;
73337;SDS011;61575;49.908;35.556;2023-06-14T10:56:46;4.72;;;2.40;;
73337;SDS011;61575;49.908;35.556;2023-06-14T10:59:49;4.45;;;2.60;;
73337;SDS011;61575;49.908;35.556;2023-06-14T11:06:12;5.43;;;3.13;;
73337;SDS011;61575;49.908;35.556;2023-06-14T11:12:35;5.18;;;2.80;;
73337;SDS011;61575;49.908;35.556;2023-06-14T11:15:38;4.82;;;2.60;;
73337;SDS011;61575;49.908;35.556;2023-06-14T11:18:46;6.32;;;2.80;;
73337;SDS011;61575;49.908;35.556;2023-06-14T11:24:50;6.15;;;2.72;;
73337;SDS011;61575;49.908;35.556;2023-06-14T11:27:52;7.00;;;2.92;;
73337;SDS011;61575;49.908;35.556;2023-06-14T11:31:00;6.07;;;2.65;;
73337;SDS011;61575;49.908;35.556;2023-06-14T11:34:03;4.65;;;2.75;;
73337;SDS011;61575;49.908;35.556;2023-06-14T11:37:07;7.35;;;2.97;;
73337;SDS011;61575;49.908;35.556;2023-06-14T11:40:10;5.85;;;3.10;;
73337;SDS011;61575;49.908;35.556;2023-06-14T11:43:13;5.05;;;3.00;;
73337;SDS011;61575;49.908;35.556;2023-06-14T11:49:18;6.15;;;3.13;;
73337;SDS011;61575;49.908;35.556;2023-06-14T11:52:20;6.40;;;3.15;;
73337;SDS011;61575;49.908;35.556;2023-06-14T11:55:22;5.55;;;2.83;;
73337;SDS011;61575;49.908;35.556;2023-06-14T11:58:25;4.90;;;3.00;;
73337;SDS011;61575;49.908;35.556;2023-06-14T12:01:29;6.00;;;3.13;;
73337;SDS011;61575;49.908;35.556;2023-06-14T12:04:33;5.53;;;2.90;;
73337;SDS011;61575;49.908;35.556;2023-06-14T12:07:38;5.68;;;3.00;;
73337;SDS011;61575;49.908;35.556;2023-06-14T12:10:43;5.80;;;3.08;;
73337;SDS011;61575;49.908;35.556;2023-06-14T12:13:45;4.47;;;2.42;;
73337;SDS011;61575;49.908;35.556;2023-06-14T12:16:47;6.05;;;2.80;;
73337;SDS011;61575;49.908;35.556;2023-06-14T12:19:49;5.07;;;2.58;;
73337;SDS011;61575;49.908;35.556;2023-06-14T12:22:52;4.70;;;2.60;;
73337;SDS011;61575;49.908;35.556;2023-06-14T12:25:54;5.35;;;2.63;;
73337;SDS011;61575;49.908;35.556;2023-06-14T12:29:01;5.55;;;2.60;;
73337;SDS011;61575;49.908;35.556;2023-06-14T12:32:07;4.65;;;2.60;;
73337;SDS011;61575;49.908;35.556;2023-06-14T12:35:09;4.82;;;2.50;;
73337;SDS011;61575;49.908;35.556;2023-06-14T12:38:11;6.30;;;2.60;;
73337;SDS011;61575;49.908;35.556;2023-06-14T12:41:13;4.85;;;2.40;;
73337;SDS011;61575;49.908;35.556;2023-06-14T12:44:18;3.97;;;2.08;;
73337;SDS011;61575;49.908;35.556;2023-06-14T12:47:20;4.88;;;2.42;;
73337;SDS011;61575;49.908;35.556;2023-06-14T12:50:22;4.50;;;2.50;;
73337;SDS011;61575;49.908;35.556;2023-06-14T12:53:27;4.88;;;2.47;;
73337;SDS011;61575;49.908;35.556;2023-06-14T12:56:29;4.55;;;2.28;;
73337;SDS011;61575;49.908;35.556;2023-06-14T12:59:31;5.22;;;2.35;;
73337;SDS011;61575;49.908;35.556;2023-06-14T13:02:34;3.95;;;2.20;;
73337;SDS011;61575;49.908;35.556;2023-06-14T13:05:37;3.88;;;2.10;;
73337;SDS011;61575;49.908;35.556;2023-06-14T13:08:42;4.03;;;2.03;;
73337;SDS011;61575;49.908;35.556;2023-06-14T13:14:48;3.78;;;1.65;;
73337;SDS011;61575;49.908;35.556;2023-06-14T13:17:50;4.15;;;1.83;;
73337;SDS011;61575;49.908;35.556;2023-06-14T13:20:52;3.88;;;1.85;;
73337;SDS011;61575;49.908;35.556;2023-06-14T13:23:54;4.20;;;2.13;;
73337;SDS011;61575;49.908;35.556;2023-06-14T13:26:56;5.65;;;2.20;;
73337;SDS011;61575;49.908;35.556;2023-06-14T13:29:59;3.95;;;2.20;;
73337;SDS011;61575;49.908;35.556;2023-06-14T13:33:01;4.18;;;2.20;;
73337;SDS011;61575;49.908;35.556;2023-06-14T13:36:03;4.40;;;2.10;;
73337;SDS011;61575;49.908;35.556;2023-06-14T13:42:07;4.95;;;2.50;;
73337;SDS011;61575;49.908;35.556;2023-06-14T13:45:10;5.88;;;3.15;;
73337;SDS011;61575;49.908;35.556;2023-06-14T13:48:13;5.13;;;2.88;;
73337;SDS011;61575;49.908;35.556;2023-06-14T13:51:15;6.78;;;3.88;;
73337;SDS011;61575;49.908;35.556;2023-06-14T13:54:19;5.07;;;3.05;;
73337;SDS011;61575;49.908;35.556;2023-06-14T13:57:22;6.05;;;3.65;;
73337;SDS011;61575;49.908;35.556;2023-06-14T14:00:25;4.60;;;2.60;;
73337;SDS011;61575;49.908;35.556;2023-06-14T14:03:26;4.68;;;2.60;;
73337;SDS011;61575;49.908;35.556;2023-06-14T14:06:28;3.72;;;1.98;;
73337;SDS011;61575;49.908;35.556;2023-06-14T14:09:30;4.35;;;1.98;;
73337;SDS011;61575;49.908;35.556;2023-06-14T14:12:33;3.88;;;2.00;;
73337;SDS011;61575;49.908;35.556;2023-06-14T14:15:34;3.53;;;1.73;;
73337;SDS011;61575;49.908;35.556;2023-06-14T14:18:37;3.03;;;1.60;;
73337;SDS011;61575;49.908;35.556;2023-06-14T14:21:40;2.85;;;1.65;;
73337;SDS011;61575;49.908;35.556;2023-06-14T14:24:42;4.65;;;1.98;;
73337;SDS011;61575;49.908;35.556;2023-06-14T14:27:44;3.17;;;1.75;;
73337;SDS011;61575;49.908;35.556;2023-06-14T14:30:46;3.85;;;1.85;;
73337;SDS011;61575;49.908;35.556;2023-06-14T14:33:49;4.13;;;1.65;;
73337;SDS011;61575;49.908;35.556;2023-06-14T14:36:51;3.35;;;1.60;;
73337;SDS011;61575;49.908;35.556;2023-06-14T14:39:54;4.10;;;2.00;;
73337;SDS011;61575;49.908;35.556;2023-06-14T14:42:56;2.95;;;1.50;;
73337;SDS011;61575;49.908;35.556;2023-06-14T14:45:57;3.80;;;1.70;;
73337;SDS011;61575;49.908;35.556;2023-06-14T14:48:59;3.30;;;1.58;;
73337;SDS011;61575;49.908;35.556;2023-06-14T14:52:02;3.40;;;1.63;;
73337;SDS011;61575;49.908;35.556;2023-06-14T14:55:23;3.70;;;1.70;;
73337;SDS011;61575;49.908;35.556;2023-06-14T14:58:25;4.60;;;1.92;;
73337;SDS011;61575;49.908;35.556;2023-06-14T15:01:28;3.03;;;1.50;;
73337;SDS011;61575;49.908;35.556;2023-06-14T15:04:30;3.75;;;1.90;;
73337;SDS011;61575;49.908;35.556;2023-06-14T15:07:32;4.18;;;1.80;;
73337;SDS011;61575;49.908;35.556;2023-06-14T15:10:37;5.03;;;2.65;;
73337;SDS011;61575;49.908;35.556;2023-06-14T15:13:42;7.38;;;2.53;;
73337;SDS011;61575;49.908;35.556;2023-06-14T15:16:44;5.70;;;2.80;;
73337;SDS011;61575;49.908;35.556;2023-06-14T15:19:47;5.88;;;2.92;;
73337;SDS011;61575;49.908;35.556;2023-06-14T15:22:49;6.15;;;3.13;;
73337;SDS011;61575;49.908;35.556;2023-06-14T15:25:51;9.38;;;3.80;;
73337;SDS011;61575;49.908;35.556;2023-06-14T15:28:53;9.45;;;3.60;;
73337;SDS011;61575;49.908;35.556;2023-06-14T15:31:55;6.43;;;3.03;;
73337;SDS011;61575;49.908;35.556;2023-06-14T15:34:59;5.25;;;2.30;;
73337;SDS011;61575;49.908;35.556;2023-06-14T15:38:00;4.45;;;2.08;;
73337;SDS011;61575;49.908;35.556;2023-06-14T15:41:03;4.18;;;2.17;;
73337;SDS011;61575;49.908;35.556;2023-06-14T15:44:05;4.68;;;2.58;;
73337;SDS011;61575;49.908;35.556;2023-06-14T15:47:07;4.80;;;2.10;;
73337;SDS011;61575;49.908;35.556;2023-06-14T15:50:09;4.20;;;2.17;;
73337;SDS011;61575;49.908;35.556;2023-06-14T15:53:11;4.07;;;2.03;;
73337;SDS011;61575;49.908;35.556;2023-06-14T15:56:13;5.20;;;2.40;;
73337;SDS011;61575;49.908;35.556;2023-06-14T15:59:15;4.10;;;2.20;;
73337;SDS011;61575;49.908;35.556;2023-06-14T16:02:17;4.53;;;2.30;;
73337;SDS011;61575;49.908;35.556;2023-06-14T16:05:19;4.47;;;2.08;;
73337;SDS011;61575;49.908;35.556;2023-06-14T16:08:21;4.18;;;2.17;;
73337;SDS011;61575;49.908;35.556;2023-06-14T16:11:41;4.00;;;2.20;;
73337;SDS011;61575;49.908;35.556;2023-06-14T16:14:42;5.35;;;2.33;;
73337;SDS011;61575;49.908;35.556;2023-06-14T16:17:44;5.00;;;2.67;;
73337;SDS011;61575;49.908;35.556;2023-06-14T16:20:46;5.38;;;2.58;;
73337;SDS011;61575;49.908;35.556;2023-06-14T16:23:49;5.25;;;2.55;;
73337;SDS011;61575;49.908;35.556;2023-06-14T16:26:51;4.85;;;2.40;;
73337;SDS011;61575;49.908;35.556;2023-06-14T16:29:55;5.10;;;2.63;;
73337;SDS011;61575;49.908;35.556;2023-06-14T16:32:57;4.80;;;2.50;;
73337;SDS011;61575;49.908;35.556;2023-06-14T16:35:59;4.38;;;2.30;;
73337;SDS011;61575;49.908;35.556;2023-06-14T16:39:02;3.78;;;2.17;;
73337;SDS011;61575;49.908;35.556;2023-06-14T16:42:05;4.15;;;2.47;;
73337;SDS011;61575;49.908;35.556;2023-06-14T16:45:07;5.40;;;2.72;;
73337;SDS011;61575;49.908;35.556;2023-06-14T16:48:09;4.57;;;2.65;;
73337;SDS011;61575;49.908;35.556;2023-06-14T16:51:11;4.60;;;2.72;;
73337;SDS011;61575;49.908;35.556;2023-06-14T16:54:13;4.50;;;2.45;;
73337;SDS011;61575;49.908;35.556;2023-06-14T16:57:14;4.13;;;2.47;;
73337;SDS011;61575;49.908;35.556;2023-06-14T17:00:17;4.20;;;2.33;;
73337;SDS011;61575;49.908;35.556;2023-06-14T17:03:19;4.60;;;2.67;;
73337;SDS011;61575;49.908;35.556;2023-06-14T17:06:21;4.57;;;2.50;;
73337;SDS011;61575;49.908;35.556;2023-06-14T17:09:23;4.55;;;2.35;;
73337;SDS011;61575;49.908;35.556;2023-06-14T17:12:25;5.07;;;2.83;;
73337;SDS011;61575;49.908;35.556;2023-06-14T17:15:27;5.43;;;2.60;;
73337;SDS011;61575;49.908;35.556;2023-06-14T17:18:29;4.53;;;2.25;;
73337;SDS011;61575;49.908;35.556;2023-06-14T17:21:31;4.00;;;2.20;;
73337;SDS011;61575;49.908;35.556;2023-06-14T17:24:33;3.95;;;2.22;;
73337;SDS011;61575;49.908;35.556;2023-06-14T17:27:35;4.68;;;2.13;;
73337;SDS011;61575;49.908;35.556;2023-06-14T17:30:37;4.33;;;2.00;;
73337;SDS011;61575;49.908;35.556;2023-06-14T17:33:39;5.28;;;2.40;;
73337;SDS011;61575;49.908;35.556;2023-06-14T17:36:42;4.35;;;2.15;;
73337;SDS011;61575;49.908;35.556;2023-06-14T17:39:45;4.93;;;2.30;;
73337;SDS011;61575;49.908;35.556;2023-06-14T17:42:47;4.50;;;2.47;;
73337;SDS011;61575;49.908;35.556;2023-06-14T17:45:49;4.10;;;2.25;;
73337;SDS011;61575;49.908;35.556;2023-06-14T17:48:51;5.13;;;2.13;;
73337;SDS011;61575;49.908;35.556;2023-06-14T17:51:53;4.00;;;2.33;;
73337;SDS011;61575;49.908;35.556;2023-06-14T17:54:55;4.35;;;2.33;;
73337;SDS011;61575;49.908;35.556;2023-06-14T17:57:57;6.05;;;2.88;;
73337;SDS011;61575;49.908;35.556;2023-06-14T18:00:59;5.45;;;3.30;;
73337;SDS011;61575;49.908;35.556;2023-06-14T18:04:01;11.68;;;5.95;;
73337;SDS011;61575;49.908;35.556;2023-06-14T18:07:03;13.10;;;6.18;;
73337;SDS011;61575;49.908;35.556;2023-06-14T18:10:06;8.50;;;4.85;;
73337;SDS011;61575;49.908;35.556;2023-06-14T18:16:10;8.13;;;3.97;;
73337;SDS011;61575;49.908;35.556;2023-06-14T18:19:15;8.20;;;3.50;;
73337;SDS011;61575;49.908;35.556;2023-06-14T18:22:20;6.50;;;3.50;;
73337;SDS011;61575;49.908;35.556;2023-06-14T18:25:22;6.43;;;2.92;;
73337;SDS011;61575;49.908;35.556;2023-06-14T18:31:27;5.38;;;3.10;;
73337;SDS011;61575;49.908;35.556;2023-06-14T18:34:29;6.47;;;2.88;;
73337;SDS011;61575;49.908;35.556;2023-06-14T18:37:31;5.40;;;2.60;;
73337;SDS011;61575;49.908;35.556;2023-06-14T18:40:34;6.03;;;2.65;;
73337;SDS011;61575;49.908;35.556;2023-06-14T18:43:36;6.43;;;2.75;;
73337;SDS011;61575;49.908;35.556;2023-06-14T18:46:38;4.53;;;2.30;;
73337;SDS011;61575;49.908;35.556;2023-06-14T18:49:40;4.95;;;2.50;;
73337;SDS011;61575;49.908;35.556;2023-06-14T18:52:42;5.90;;;2.42;;